sensor_id;sensor_type;location;lat;lon;timestamp;P1;durP1;ratioP1;P2;durP2;ratioP2
17214;SDS011;8723;51.502;6.918;2022-09-09T00:02:08;2.80;;;1.57;;
17214;SDS011;8723;51.502;6.918;2022-09-09T00:04:40;3.08;;;1.98;;
17214;SDS011;8723;51.502;6.918;2022-09-09T00:07:10;3.90;;;2.00;;
17214;SDS011;8723;51.502;6.918;2022-09-09T00:09:44;3.85;;;1.95;;
17214;SDS011;8723;51.502;6.918;2022-09-09T00:12:14;4.70;;;2.00;;
17214;SDS011;8723;51.502;6.918;2022-09-09T00:14:45;4.60;;;1.85;;
17214;SDS011;8723;51.502;6.918;2022-09-09T00:17:18;3.67;;;2.00;;
17214;SDS011;8723;51.502;6.918;2022-09-09T00:19:51;4.72;;;2.00;;
17214;SDS011;8723;51.502;6.918;2022-09-09T00:22:21;3.83;;;2.00;;
17214;SDS011;8723;51.502;6.918;2022-09-09T00:24:51;3.35;;;1.95;;
17214;SDS011;8723;51.502;6.918;2022-09-09T00:27:21;2.70;;;1.80;;
17214;SDS011;8723;51.502;6.918;2022-09-09T00:29:53;5.30;;;2.08;;
17214;SDS011;8723;51.502;6.918;2022-09-09T00:32:21;3.28;;;1.58;;
17214;SDS011;8723;51.502;6.918;2022-09-09T00:34:49;3.35;;;1.70;;
17214;SDS011;8723;51.502;6.918;2022-09-09T00:37:18;3.37;;;1.60;;
17214;SDS011;8723;51.502;6.918;2022-09-09T00:39:46;2.95;;;1.60;;
17214;SDS011;8723;51.502;6.918;2022-09-09T00:42:15;4.03;;;1.60;;
17214;SDS011;8723;51.502;6.918;2022-09-09T00:44:48;3.13;;;2.00;;
17214;SDS011;8723;51.502;6.918;2022-09-09T00:47:24;3.35;;;2.08;;
17214;SDS011;8723;51.502;6.918;2022-09-09T00:49:58;4.05;;;1.90;;
17214;SDS011;8723;51.502;6.918;2022-09-09T00:52:30;5.32;;;2.00;;
17214;SDS011;8723;51.502;6.918;2022-09-09T00:55:02;3.53;;;1.73;;
17214;SDS011;8723;51.502;6.918;2022-09-09T00:57:31;3.63;;;1.60;;
17214;SDS011;8723;51.502;6.918;2022-09-09T01:00:00;3.80;;;1.80;;
17214;SDS011;8723;51.502;6.918;2022-09-09T01:02:34;3.00;;;1.60;;
17214;SDS011;8723;51.502;6.918;2022-09-09T01:05:05;3.08;;;1.70;;
17214;SDS011;8723;51.502;6.918;2022-09-09T01:07:34;5.65;;;1.88;;
17214;SDS011;8723;51.502;6.918;2022-09-09T01:10:03;2.37;;;1.40;;
17214;SDS011;8723;51.502;6.918;2022-09-09T01:12:35;2.83;;;1.77;;
17214;SDS011;8723;51.502;6.918;2022-09-09T01:15:08;4.68;;;1.90;;
17214;SDS011;8723;51.502;6.918;2022-09-09T01:17:40;2.75;;;1.92;;
17214;SDS011;8723;51.502;6.918;2022-09-09T01:20:10;3.60;;;1.90;;
17214;SDS011;8723;51.502;6.918;2022-09-09T01:22:42;4.13;;;2.07;;
17214;SDS011;8723;51.502;6.918;2022-09-09T01:25:22;3.58;;;1.95;;
17214;SDS011;8723;51.502;6.918;2022-09-09T01:27:55;6.30;;;2.08;;
17214;SDS011;8723;51.502;6.918;2022-09-09T01:30:23;4.88;;;2.22;;
17214;SDS011;8723;51.502;6.918;2022-09-09T01:32:52;3.65;;;2.08;;
17214;SDS011;8723;51.502;6.918;2022-09-09T01:35:23;6.15;;;1.90;;
17214;SDS011;8723;51.502;6.918;2022-09-09T01:37:55;3.05;;;2.00;;
17214;SDS011;8723;51.502;6.918;2022-09-09T01:40:22;6.47;;;2.40;;
17214;SDS011;8723;51.502;6.918;2022-09-09T01:42:50;3.58;;;1.98;;
17214;SDS011;8723;51.502;6.918;2022-09-09T01:45:19;3.67;;;2.20;;
17214;SDS011;8723;51.502;6.918;2022-09-09T01:47:46;6.05;;;2.40;;
17214;SDS011;8723;51.502;6.918;2022-09-09T01:50:15;9.40;;;2.60;;
17214;SDS011;8723;51.502;6.918;2022-09-09T01:52:42;5.55;;;2.40;;
17214;SDS011;8723;51.502;6.918;2022-09-09T01:55:10;5.68;;;2.72;;
17214;SDS011;8723;51.502;6.918;2022-09-09T01:57:39;4.85;;;2.53;;
17214;SDS011;8723;51.502;6.918;2022-09-09T02:00:09;4.32;;;2.50;;
17214;SDS011;8723;51.502;6.918;2022-09-09T02:02:41;4.53;;;2.58;;
17214;SDS011;8723;51.502;6.918;2022-09-09T02:05:14;5.05;;;2.50;;
17214;SDS011;8723;51.502;6.918;2022-09-09T02:07:45;5.35;;;2.63;;
17214;SDS011;8723;51.502;6.918;2022-09-09T02:10:16;5.32;;;2.60;;
17214;SDS011;8723;51.502;6.918;2022-09-09T02:12:45;6.43;;;2.50;;
17214;SDS011;8723;51.502;6.918;2022-09-09T02:15:14;6.63;;;2.67;;
17214;SDS011;8723;51.502;6.918;2022-09-09T02:17:44;7.80;;;2.70;;
17214;SDS011;8723;51.502;6.918;2022-09-09T02:20:13;5.85;;;2.50;;
17214;SDS011;8723;51.502;6.918;2022-09-09T02:22:42;5.55;;;2.42;;
17214;SDS011;8723;51.502;6.918;2022-09-09T02:25:11;4.77;;;2.40;;
17214;SDS011;8723;51.502;6.918;2022-09-09T02:27:40;7.35;;;2.70;;
17214;SDS011;8723;51.502;6.918;2022-09-09T02:30:09;5.78;;;2.45;;
17214;SDS011;8723;51.502;6.918;2022-09-09T02:32:37;4.13;;;2.22;;
17214;SDS011;8723;51.502;6.918;2022-09-09T02:35:08;6.07;;;2.57;;
17214;SDS011;8723;51.502;6.918;2022-09-09T02:37:37;6.15;;;2.40;;
17214;SDS011;8723;51.502;6.918;2022-09-09T02:40:05;6.05;;;2.60;;
17214;SDS011;8723;51.502;6.918;2022-09-09T02:42:33;5.23;;;2.40;;
17214;SDS011;8723;51.502;6.918;2022-09-09T02:45:05;5.47;;;2.58;;
17214;SDS011;8723;51.502;6.918;2022-09-09T02:47:34;5.45;;;2.60;;
17214;SDS011;8723;51.502;6.918;2022-09-09T02:50:04;3.95;;;2.47;;
17214;SDS011;8723;51.502;6.918;2022-09-09T02:52:36;5.60;;;2.60;;
17214;SDS011;8723;51.502;6.918;2022-09-09T02:55:07;5.43;;;2.50;;
17214;SDS011;8723;51.502;6.918;2022-09-09T02:57:35;5.60;;;2.47;;
17214;SDS011;8723;51.502;6.918;2022-09-09T03:00:03;7.30;;;2.90;;
17214;SDS011;8723;51.502;6.918;2022-09-09T03:02:30;3.95;;;2.47;;
17214;SDS011;8723;51.502;6.918;2022-09-09T03:04:57;7.07;;;2.60;;
17214;SDS011;8723;51.502;6.918;2022-09-09T03:07:25;4.80;;;2.67;;
17214;SDS011;8723;51.502;6.918;2022-09-09T03:09:53;7.30;;;2.80;;
17214;SDS011;8723;51.502;6.918;2022-09-09T03:12:20;5.85;;;3.05;;
17214;SDS011;8723;51.502;6.918;2022-09-09T03:14:48;5.00;;;2.80;;
17214;SDS011;8723;51.502;6.918;2022-09-09T03:17:15;5.27;;;2.47;;
17214;SDS011;8723;51.502;6.918;2022-09-09T03:19:42;5.20;;;2.80;;
17214;SDS011;8723;51.502;6.918;2022-09-09T03:22:09;4.93;;;2.95;;
17214;SDS011;8723;51.502;6.918;2022-09-09T03:24:38;5.97;;;2.80;;
17214;SDS011;8723;51.502;6.918;2022-09-09T03:27:07;6.07;;;3.00;;
17214;SDS011;8723;51.502;6.918;2022-09-09T03:29:34;7.57;;;3.10;;
17214;SDS011;8723;51.502;6.918;2022-09-09T03:32:01;6.05;;;3.03;;
17214;SDS011;8723;51.502;6.918;2022-09-09T03:34:28;4.50;;;3.07;;
17214;SDS011;8723;51.502;6.918;2022-09-09T03:36:55;5.88;;;3.00;;
17214;SDS011;8723;51.502;6.918;2022-09-09T03:39:23;6.95;;;3.17;;
17214;SDS011;8723;51.502;6.918;2022-09-09T03:41:50;6.88;;;3.28;;
17214;SDS011;8723;51.502;6.918;2022-09-09T03:44:18;6.00;;;3.08;;
17214;SDS011;8723;51.502;6.918;2022-09-09T03:46:45;8.93;;;3.20;;
17214;SDS011;8723;51.502;6.918;2022-09-09T03:49:12;6.75;;;3.50;;
17214;SDS011;8723;51.502;6.918;2022-09-09T03:51:40;6.05;;;3.45;;
17214;SDS011;8723;51.502;6.918;2022-09-09T03:54:07;5.80;;;3.10;;
17214;SDS011;8723;51.502;6.918;2022-09-09T03:56:35;7.00;;;3.13;;
17214;SDS011;8723;51.502;6.918;2022-09-09T03:59:02;6.35;;;3.30;;
17214;SDS011;8723;51.502;6.918;2022-09-09T04:01:31;6.40;;;3.45;;
17214;SDS011;8723;51.502;6.918;2022-09-09T04:03:58;5.97;;;3.00;;
17214;SDS011;8723;51.502;6.918;2022-09-09T04:06:27;9.63;;;3.60;;
17214;SDS011;8723;51.502;6.918;2022-09-09T04:08:55;7.00;;;3.40;;
17214;SDS011;8723;51.502;6.918;2022-09-09T04:11:22;6.32;;;3.42;;
17214;SDS011;8723;51.502;6.918;2022-09-09T04:13:49;8.05;;;3.45;;
17214;SDS011;8723;51.502;6.918;2022-09-09T04:16:16;6.38;;;3.47;;
17214;SDS011;8723;51.502;6.918;2022-09-09T04:18:45;7.85;;;3.63;;
17214;SDS011;8723;51.502;6.918;2022-09-09T04:21:12;8.48;;;3.90;;
17214;SDS011;8723;51.502;6.918;2022-09-09T04:23:40;9.32;;;3.88;;
17214;SDS011;8723;51.502;6.918;2022-09-09T04:26:07;7.63;;;3.90;;
17214;SDS011;8723;51.502;6.918;2022-09-09T04:28:35;5.28;;;3.85;;
17214;SDS011;8723;51.502;6.918;2022-09-09T04:31:06;6.25;;;3.88;;
17214;SDS011;8723;51.502;6.918;2022-09-09T04:33:34;7.93;;;3.90;;
17214;SDS011;8723;51.502;6.918;2022-09-09T04:36:02;8.98;;;3.90;;
17214;SDS011;8723;51.502;6.918;2022-09-09T04:38:29;9.20;;;3.75;;
17214;SDS011;8723;51.502;6.918;2022-09-09T04:40:57;7.13;;;3.77;;
17214;SDS011;8723;51.502;6.918;2022-09-09T04:43:24;9.30;;;4.10;;
17214;SDS011;8723;51.502;6.918;2022-09-09T04:45:52;7.90;;;3.80;;
17214;SDS011;8723;51.502;6.918;2022-09-09T04:48:19;6.03;;;3.50;;
17214;SDS011;8723;51.502;6.918;2022-09-09T04:50:53;8.27;;;4.00;;
17214;SDS011;8723;51.502;6.918;2022-09-09T04:53:22;9.43;;;4.10;;
17214;SDS011;8723;51.502;6.918;2022-09-09T04:55:50;7.88;;;4.20;;
17214;SDS011;8723;51.502;6.918;2022-09-09T04:58:17;7.50;;;4.30;;
17214;SDS011;8723;51.502;6.918;2022-09-09T05:00:46;6.13;;;4.00;;
17214;SDS011;8723;51.502;6.918;2022-09-09T05:03:14;8.38;;;4.22;;
17214;SDS011;8723;51.502;6.918;2022-09-09T05:05:41;9.52;;;4.00;;
17214;SDS011;8723;51.502;6.918;2022-09-09T05:08:09;7.78;;;3.95;;
17214;SDS011;8723;51.502;6.918;2022-09-09T05:10:38;8.07;;;3.60;;
17214;SDS011;8723;51.502;6.918;2022-09-09T05:13:07;7.88;;;3.35;;
17214;SDS011;8723;51.502;6.918;2022-09-09T05:15:34;9.43;;;3.70;;
17214;SDS011;8723;51.502;6.918;2022-09-09T05:18:01;9.70;;;3.58;;
17214;SDS011;8723;51.502;6.918;2022-09-09T05:20:28;7.20;;;3.23;;
17214;SDS011;8723;51.502;6.918;2022-09-09T05:22:56;7.45;;;3.50;;
17214;SDS011;8723;51.502;6.918;2022-09-09T05:25:23;6.70;;;3.70;;
17214;SDS011;8723;51.502;6.918;2022-09-09T05:27:52;6.43;;;3.10;;
17214;SDS011;8723;51.502;6.918;2022-09-09T05:30:19;7.75;;;3.47;;
17214;SDS011;8723;51.502;6.918;2022-09-09T05:32:47;13.60;;;3.88;;
17214;SDS011;8723;51.502;6.918;2022-09-09T05:35:15;9.38;;;3.65;;
17214;SDS011;8723;51.502;6.918;2022-09-09T05:37:44;9.18;;;3.67;;
17214;SDS011;8723;51.502;6.918;2022-09-09T05:40:11;6.10;;;3.20;;
17214;SDS011;8723;51.502;6.918;2022-09-09T05:42:38;10.43;;;3.78;;
17214;SDS011;8723;51.502;6.918;2022-09-09T05:45:07;6.05;;;3.30;;
17214;SDS011;8723;51.502;6.918;2022-09-09T05:47:35;8.07;;;3.90;;
17214;SDS011;8723;51.502;6.918;2022-09-09T05:50:02;8.98;;;3.67;;
17214;SDS011;8723;51.502;6.918;2022-09-09T05:52:29;7.67;;;3.93;;
17214;SDS011;8723;51.502;6.918;2022-09-09T05:54:56;9.20;;;3.78;;
17214;SDS011;8723;51.502;6.918;2022-09-09T05:57:24;8.30;;;3.80;;
17214;SDS011;8723;51.502;6.918;2022-09-09T05:59:51;9.60;;;3.70;;
17214;SDS011;8723;51.502;6.918;2022-09-09T06:02:20;9.00;;;3.70;;
17214;SDS011;8723;51.502;6.918;2022-09-09T06:04:47;11.57;;;3.90;;
17214;SDS011;8723;51.502;6.918;2022-09-09T06:07:15;10.02;;;3.80;;
17214;SDS011;8723;51.502;6.918;2022-09-09T06:09:42;9.10;;;3.50;;
17214;SDS011;8723;51.502;6.918;2022-09-09T06:12:09;8.55;;;3.60;;
17214;SDS011;8723;51.502;6.918;2022-09-09T06:14:36;7.85;;;3.45;;
17214;SDS011;8723;51.502;6.918;2022-09-09T06:17:04;8.40;;;3.35;;
17214;SDS011;8723;51.502;6.918;2022-09-09T06:19:32;7.85;;;3.25;;
17214;SDS011;8723;51.502;6.918;2022-09-09T06:22:00;7.50;;;3.20;;
17214;SDS011;8723;51.502;6.918;2022-09-09T06:24:27;8.52;;;3.60;;
17214;SDS011;8723;51.502;6.918;2022-09-09T06:26:57;7.60;;;3.17;;
17214;SDS011;8723;51.502;6.918;2022-09-09T06:29:25;11.32;;;3.75;;
17214;SDS011;8723;51.502;6.918;2022-09-09T06:31:52;5.50;;;3.05;;
17214;SDS011;8723;51.502;6.918;2022-09-09T06:34:19;10.02;;;3.70;;
17214;SDS011;8723;51.502;6.918;2022-09-09T06:36:48;8.52;;;3.00;;
17214;SDS011;8723;51.502;6.918;2022-09-09T06:39:16;8.73;;;3.10;;
17214;SDS011;8723;51.502;6.918;2022-09-09T06:41:43;5.73;;;2.60;;
17214;SDS011;8723;51.502;6.918;2022-09-09T06:44:13;7.47;;;2.72;;
17214;SDS011;8723;51.502;6.918;2022-09-09T06:46:41;9.50;;;3.60;;
17214;SDS011;8723;51.502;6.918;2022-09-09T06:49:09;7.25;;;2.97;;
17214;SDS011;8723;51.502;6.918;2022-09-09T06:51:37;7.43;;;3.17;;
17214;SDS011;8723;51.502;6.918;2022-09-09T06:54:09;6.68;;;2.78;;
17214;SDS011;8723;51.502;6.918;2022-09-09T06:56:36;9.20;;;3.13;;
17214;SDS011;8723;51.502;6.918;2022-09-09T06:59:06;5.97;;;2.90;;
17214;SDS011;8723;51.502;6.918;2022-09-09T07:01:34;7.60;;;2.63;;
17214;SDS011;8723;51.502;6.918;2022-09-09T07:04:02;7.70;;;2.80;;
17214;SDS011;8723;51.502;6.918;2022-09-09T07:06:33;7.93;;;2.60;;
17214;SDS011;8723;51.502;6.918;2022-09-09T07:09:00;5.88;;;2.67;;
17214;SDS011;8723;51.502;6.918;2022-09-09T07:11:30;6.60;;;2.80;;
17214;SDS011;8723;51.502;6.918;2022-09-09T07:13:58;5.37;;;2.23;;
17214;SDS011;8723;51.502;6.918;2022-09-09T07:16:26;6.45;;;2.75;;
17214;SDS011;8723;51.502;6.918;2022-09-09T07:18:54;5.93;;;2.45;;
17214;SDS011;8723;51.502;6.918;2022-09-09T07:21:23;3.75;;;2.20;;
17214;SDS011;8723;51.502;6.918;2022-09-09T07:23:51;5.55;;;2.28;;
17214;SDS011;8723;51.502;6.918;2022-09-09T07:26:19;4.40;;;2.10;;
17214;SDS011;8723;51.502;6.918;2022-09-09T07:28:48;5.50;;;2.20;;
17214;SDS011;8723;51.502;6.918;2022-09-09T07:31:15;5.22;;;2.15;;
17214;SDS011;8723;51.502;6.918;2022-09-09T07:33:43;5.38;;;1.90;;
17214;SDS011;8723;51.502;6.918;2022-09-09T07:36:12;5.38;;;2.20;;
17214;SDS011;8723;51.502;6.918;2022-09-09T07:38:40;4.82;;;1.90;;
17214;SDS011;8723;51.502;6.918;2022-09-09T07:41:09;7.28;;;2.13;;
17214;SDS011;8723;51.502;6.918;2022-09-09T07:43:37;5.97;;;2.30;;
17214;SDS011;8723;51.502;6.918;2022-09-09T07:46:07;3.60;;;1.55;;
17214;SDS011;8723;51.502;6.918;2022-09-09T07:48:34;6.47;;;2.03;;
17214;SDS011;8723;51.502;6.918;2022-09-09T07:51:06;8.75;;;2.28;;
17214;SDS011;8723;51.502;6.918;2022-09-09T07:53:33;5.93;;;1.92;;
17214;SDS011;8723;51.502;6.918;2022-09-09T07:56:04;4.75;;;1.70;;
17214;SDS011;8723;51.502;6.918;2022-09-09T07:58:31;3.67;;;1.83;;
17214;SDS011;8723;51.502;6.918;2022-09-09T08:00:58;5.63;;;1.77;;
17214;SDS011;8723;51.502;6.918;2022-09-09T08:03:27;3.72;;;1.60;;
17214;SDS011;8723;51.502;6.918;2022-09-09T08:05:59;4.40;;;1.77;;
17214;SDS011;8723;51.502;6.918;2022-09-09T08:08:27;4.40;;;1.85;;
17214;SDS011;8723;51.502;6.918;2022-09-09T08:11:00;5.22;;;1.75;;
17214;SDS011;8723;51.502;6.918;2022-09-09T08:13:27;4.40;;;1.52;;
17214;SDS011;8723;51.502;6.918;2022-09-09T08:15:55;5.80;;;2.13;;
17214;SDS011;8723;51.502;6.918;2022-09-09T08:18:31;5.65;;;1.83;;
17214;SDS011;8723;51.502;6.918;2022-09-09T08:21:04;5.47;;;1.73;;
17214;SDS011;8723;51.502;6.918;2022-09-09T08:23:31;4.23;;;1.53;;
17214;SDS011;8723;51.502;6.918;2022-09-09T08:26:02;3.90;;;1.50;;
17214;SDS011;8723;51.502;6.918;2022-09-09T08:28:30;6.32;;;1.60;;
17214;SDS011;8723;51.502;6.918;2022-09-09T08:31:04;5.45;;;1.77;;
17214;SDS011;8723;51.502;6.918;2022-09-09T08:33:33;4.65;;;1.55;;
17214;SDS011;8723;51.502;6.918;2022-09-09T08:36:02;3.85;;;1.73;;
17214;SDS011;8723;51.502;6.918;2022-09-09T08:38:29;4.40;;;1.50;;
17214;SDS011;8723;51.502;6.918;2022-09-09T08:40:58;4.88;;;1.50;;
17214;SDS011;8723;51.502;6.918;2022-09-09T08:43:27;3.55;;;1.48;;
17214;SDS011;8723;51.502;6.918;2022-09-09T08:45:57;4.25;;;1.30;;
17214;SDS011;8723;51.502;6.918;2022-09-09T08:48:36;4.43;;;1.45;;
17214;SDS011;8723;51.502;6.918;2022-09-09T08:51:08;4.47;;;1.50;;
17214;SDS011;8723;51.502;6.918;2022-09-09T08:53:37;2.90;;;1.25;;
17214;SDS011;8723;51.502;6.918;2022-09-09T08:56:08;5.43;;;1.80;;
17214;SDS011;8723;51.502;6.918;2022-09-09T08:58:39;5.43;;;1.42;;
17214;SDS011;8723;51.502;6.918;2022-09-09T09:04:11;3.75;;;1.42;;
17214;SDS011;8723;51.502;6.918;2022-09-09T09:06:45;3.20;;;1.50;;
17214;SDS011;8723;51.502;6.918;2022-09-09T09:09:16;3.50;;;1.42;;
17214;SDS011;8723;51.502;6.918;2022-09-09T09:11:46;5.40;;;1.50;;
17214;SDS011;8723;51.502;6.918;2022-09-09T09:14:15;6.40;;;1.50;;
17214;SDS011;8723;51.502;6.918;2022-09-09T09:16:48;3.43;;;1.43;;
17214;SDS011;8723;51.502;6.918;2022-09-09T09:19:19;2.75;;;1.33;;
17214;SDS011;8723;51.502;6.918;2022-09-09T09:21:48;4.22;;;1.50;;
17214;SDS011;8723;51.502;6.918;2022-09-09T09:24:18;4.28;;;1.35;;
17214;SDS011;8723;51.502;6.918;2022-09-09T09:26:46;3.65;;;1.20;;
17214;SDS011;8723;51.502;6.918;2022-09-09T09:29:14;4.20;;;1.40;;
17214;SDS011;8723;51.502;6.918;2022-09-09T09:31:42;3.58;;;1.27;;
17214;SDS011;8723;51.502;6.918;2022-09-09T09:34:10;5.88;;;1.80;;
17214;SDS011;8723;51.502;6.918;2022-09-09T09:36:40;3.90;;;1.30;;
17214;SDS011;8723;51.502;6.918;2022-09-09T09:39:09;5.28;;;1.40;;
17214;SDS011;8723;51.502;6.918;2022-09-09T09:41:38;4.60;;;1.40;;
17214;SDS011;8723;51.502;6.918;2022-09-09T09:44:06;4.57;;;1.70;;
17214;SDS011;8723;51.502;6.918;2022-09-09T09:46:45;3.92;;;1.45;;
17214;SDS011;8723;51.502;6.918;2022-09-09T09:49:12;4.40;;;1.25;;
17214;SDS011;8723;51.502;6.918;2022-09-09T09:51:41;4.75;;;1.30;;
17214;SDS011;8723;51.502;6.918;2022-09-09T09:54:15;4.40;;;1.30;;
17214;SDS011;8723;51.502;6.918;2022-09-09T09:56:44;5.50;;;1.48;;
17214;SDS011;8723;51.502;6.918;2022-09-09T09:59:19;4.03;;;1.70;;
17214;SDS011;8723;51.502;6.918;2022-09-09T10:01:46;4.20;;;1.40;;
17214;SDS011;8723;51.502;6.918;2022-09-09T10:04:14;2.33;;;1.40;;
17214;SDS011;8723;51.502;6.918;2022-09-09T10:06:44;4.05;;;1.60;;
17214;SDS011;8723;51.502;6.918;2022-09-09T10:09:20;3.78;;;1.70;;
17214;SDS011;8723;51.502;6.918;2022-09-09T10:11:49;4.85;;;1.70;;
17214;SDS011;8723;51.502;6.918;2022-09-09T10:14:20;3.33;;;1.35;;
17214;SDS011;8723;51.502;6.918;2022-09-09T10:16:53;4.25;;;1.60;;
17214;SDS011;8723;51.502;6.918;2022-09-09T10:19:26;3.92;;;1.27;;
17214;SDS011;8723;51.502;6.918;2022-09-09T10:22:00;3.03;;;1.13;;
17214;SDS011;8723;51.502;6.918;2022-09-09T10:24:42;3.00;;;1.00;;
17214;SDS011;8723;51.502;6.918;2022-09-09T10:27:14;3.50;;;1.10;;
17214;SDS011;8723;51.502;6.918;2022-09-09T10:29:47;4.38;;;1.38;;
17214;SDS011;8723;51.502;6.918;2022-09-09T10:32:26;4.22;;;1.10;;
17214;SDS011;8723;51.502;6.918;2022-09-09T10:35:01;3.90;;;1.10;;
17214;SDS011;8723;51.502;6.918;2022-09-09T10:37:35;2.87;;;1.10;;
17214;SDS011;8723;51.502;6.918;2022-09-09T10:40:08;2.30;;;0.93;;
17214;SDS011;8723;51.502;6.918;2022-09-09T10:42:42;2.35;;;1.00;;
17214;SDS011;8723;51.502;6.918;2022-09-09T10:45:14;1.83;;;1.10;;
17214;SDS011;8723;51.502;6.918;2022-09-09T10:47:49;2.83;;;1.08;;
17214;SDS011;8723;51.502;6.918;2022-09-09T10:50:26;3.42;;;1.00;;
17214;SDS011;8723;51.502;6.918;2022-09-09T10:52:58;2.03;;;0.90;;
17214;SDS011;8723;51.502;6.918;2022-09-09T10:55:27;2.50;;;1.00;;
17214;SDS011;8723;51.502;6.918;2022-09-09T10:57:58;3.40;;;1.30;;
17214;SDS011;8723;51.502;6.918;2022-09-09T11:00:25;3.58;;;1.10;;
17214;SDS011;8723;51.502;6.918;2022-09-09T11:02:56;2.13;;;0.77;;
17214;SDS011;8723;51.502;6.918;2022-09-09T11:05:24;2.83;;;0.95;;
17214;SDS011;8723;51.502;6.918;2022-09-09T11:07:55;2.35;;;1.00;;
17214;SDS011;8723;51.502;6.918;2022-09-09T11:10:26;3.40;;;1.00;;
17214;SDS011;8723;51.502;6.918;2022-09-09T11:12:56;1.52;;;0.80;;
17214;SDS011;8723;51.502;6.918;2022-09-09T11:15:26;2.78;;;0.77;;
17214;SDS011;8723;51.502;6.918;2022-09-09T11:17:56;1.88;;;0.80;;
17214;SDS011;8723;51.502;6.918;2022-09-09T11:20:24;2.85;;;1.10;;
17214;SDS011;8723;51.502;6.918;2022-09-09T11:22:53;3.30;;;1.10;;
17214;SDS011;8723;51.502;6.918;2022-09-09T11:25:22;2.65;;;1.20;;
17214;SDS011;8723;51.502;6.918;2022-09-09T11:27:53;2.95;;;1.00;;
17214;SDS011;8723;51.502;6.918;2022-09-09T11:30:26;4.35;;;1.17;;
17214;SDS011;8723;51.502;6.918;2022-09-09T11:33:03;2.33;;;0.82;;
17214;SDS011;8723;51.502;6.918;2022-09-09T11:35:38;4.38;;;1.40;;
17214;SDS011;8723;51.502;6.918;2022-09-09T11:38:14;3.33;;;0.90;;
17214;SDS011;8723;51.502;6.918;2022-09-09T11:40:42;4.00;;;1.10;;
17214;SDS011;8723;51.502;6.918;2022-09-09T11:43:11;5.07;;;1.50;;
17214;SDS011;8723;51.502;6.918;2022-09-09T11:45:39;2.20;;;0.90;;
17214;SDS011;8723;51.502;6.918;2022-09-09T11:48:20;2.53;;;1.10;;
17214;SDS011;8723;51.502;6.918;2022-09-09T11:50:56;2.25;;;1.17;;
17214;SDS011;8723;51.502;6.918;2022-09-09T11:53:24;2.80;;;1.00;;
17214;SDS011;8723;51.502;6.918;2022-09-09T11:56:02;2.43;;;1.00;;
17214;SDS011;8723;51.502;6.918;2022-09-09T11:58:31;2.10;;;0.80;;
17214;SDS011;8723;51.502;6.918;2022-09-09T12:01:01;2.15;;;0.77;;
17214;SDS011;8723;51.502;6.918;2022-09-09T12:03:40;1.83;;;0.82;;
17214;SDS011;8723;51.502;6.918;2022-09-09T12:06:10;2.55;;;0.90;;
17214;SDS011;8723;51.502;6.918;2022-09-09T12:08:39;1.90;;;0.82;;
17214;SDS011;8723;51.502;6.918;2022-09-09T12:11:08;2.50;;;0.80;;
17214;SDS011;8723;51.502;6.918;2022-09-09T12:13:37;1.98;;;1.10;;
17214;SDS011;8723;51.502;6.918;2022-09-09T12:18:49;2.38;;;1.00;;
17214;SDS011;8723;51.502;6.918;2022-09-09T12:21:18;2.20;;;0.80;;
17214;SDS011;8723;51.502;6.918;2022-09-09T12:23:49;1.70;;;0.75;;
17214;SDS011;8723;51.502;6.918;2022-09-09T12:26:22;3.17;;;0.90;;
17214;SDS011;8723;51.502;6.918;2022-09-09T12:28:56;1.95;;;0.98;;
17214;SDS011;8723;51.502;6.918;2022-09-09T12:31:25;2.70;;;0.90;;
17214;SDS011;8723;51.502;6.918;2022-09-09T12:33:55;2.42;;;0.80;;
17214;SDS011;8723;51.502;6.918;2022-09-09T12:36:29;2.17;;;0.98;;
17214;SDS011;8723;51.502;6.918;2022-09-09T12:38:57;3.85;;;1.33;;
17214;SDS011;8723;51.502;6.918;2022-09-09T12:41:26;2.83;;;1.03;;
17214;SDS011;8723;51.502;6.918;2022-09-09T12:44:04;2.47;;;0.90;;
17214;SDS011;8723;51.502;6.918;2022-09-09T12:46:34;2.50;;;0.90;;
17214;SDS011;8723;51.502;6.918;2022-09-09T12:49:03;2.45;;;1.08;;
17214;SDS011;8723;51.502;6.918;2022-09-09T12:51:32;3.75;;;1.10;;
17214;SDS011;8723;51.502;6.918;2022-09-09T12:54:00;3.90;;;1.40;;
17214;SDS011;8723;51.502;6.918;2022-09-09T12:56:28;3.03;;;1.20;;
17214;SDS011;8723;51.502;6.918;2022-09-09T12:58:57;2.92;;;1.40;;
17214;SDS011;8723;51.502;6.918;2022-09-09T13:01:27;2.83;;;1.30;;
17214;SDS011;8723;51.502;6.918;2022-09-09T13:03:55;2.73;;;1.20;;
17214;SDS011;8723;51.502;6.918;2022-09-09T13:06:23;4.80;;;1.80;;
17214;SDS011;8723;51.502;6.918;2022-09-09T13:08:50;4.70;;;2.25;;
17214;SDS011;8723;51.502;6.918;2022-09-09T13:11:19;5.97;;;2.17;;
17214;SDS011;8723;51.502;6.918;2022-09-09T13:13:51;4.68;;;1.90;;
17214;SDS011;8723;51.502;6.918;2022-09-09T13:16:20;5.70;;;2.10;;
17214;SDS011;8723;51.502;6.918;2022-09-09T13:18:49;5.27;;;1.97;;
17214;SDS011;8723;51.502;6.918;2022-09-09T13:21:17;3.67;;;2.00;;
17214;SDS011;8723;51.502;6.918;2022-09-09T13:23:50;4.97;;;2.10;;
17214;SDS011;8723;51.502;6.918;2022-09-09T13:26:22;5.50;;;2.10;;
17214;SDS011;8723;51.502;6.918;2022-09-09T13:28:49;5.03;;;1.98;;
17214;SDS011;8723;51.502;6.918;2022-09-09T13:31:21;5.05;;;2.38;;
17214;SDS011;8723;51.502;6.918;2022-09-09T13:33:50;5.75;;;2.50;;
17214;SDS011;8723;51.502;6.918;2022-09-09T13:36:26;5.03;;;2.40;;
17214;SDS011;8723;51.502;6.918;2022-09-09T13:38:54;10.10;;;3.10;;
17214;SDS011;8723;51.502;6.918;2022-09-09T13:41:24;6.07;;;2.70;;
17214;SDS011;8723;51.502;6.918;2022-09-09T13:43:52;6.75;;;2.70;;
17214;SDS011;8723;51.502;6.918;2022-09-09T13:46:24;3.50;;;2.60;;
17214;SDS011;8723;51.502;6.918;2022-09-09T13:48:57;7.03;;;3.17;;
17214;SDS011;8723;51.502;6.918;2022-09-09T13:51:34;5.77;;;2.70;;
17214;SDS011;8723;51.502;6.918;2022-09-09T13:54:02;6.75;;;2.80;;
17214;SDS011;8723;51.502;6.918;2022-09-09T13:56:30;5.20;;;2.30;;
17214;SDS011;8723;51.502;6.918;2022-09-09T13:58:57;3.50;;;2.40;;
17214;SDS011;8723;51.502;6.918;2022-09-09T14:01:25;5.60;;;2.45;;
17214;SDS011;8723;51.502;6.918;2022-09-09T14:03:53;4.85;;;2.53;;
17214;SDS011;8723;51.502;6.918;2022-09-09T14:06:21;5.20;;;2.55;;
17214;SDS011;8723;51.502;6.918;2022-09-09T14:08:49;3.63;;;2.30;;
17214;SDS011;8723;51.502;6.918;2022-09-09T14:11:17;3.47;;;2.20;;
17214;SDS011;8723;51.502;6.918;2022-09-09T14:13:44;4.28;;;2.20;;
17214;SDS011;8723;51.502;6.918;2022-09-09T14:16:11;4.45;;;2.00;;
17214;SDS011;8723;51.502;6.918;2022-09-09T14:18:38;3.63;;;2.00;;
17214;SDS011;8723;51.502;6.918;2022-09-09T14:21:06;3.05;;;1.75;;
17214;SDS011;8723;51.502;6.918;2022-09-09T14:23:35;4.18;;;1.90;;
17214;SDS011;8723;51.502;6.918;2022-09-09T14:26:03;3.53;;;1.67;;
17214;SDS011;8723;51.502;6.918;2022-09-09T14:28:31;3.42;;;1.88;;
17214;SDS011;8723;51.502;6.918;2022-09-09T14:30:59;3.33;;;1.70;;
17214;SDS011;8723;51.502;6.918;2022-09-09T14:33:26;2.70;;;1.60;;
17214;SDS011;8723;51.502;6.918;2022-09-09T14:35:55;2.97;;;1.60;;
17214;SDS011;8723;51.502;6.918;2022-09-09T14:38:24;2.65;;;1.38;;
17214;SDS011;8723;51.502;6.918;2022-09-09T14:40:53;3.33;;;1.52;;
17214;SDS011;8723;51.502;6.918;2022-09-09T14:43:21;3.78;;;1.50;;
17214;SDS011;8723;51.502;6.918;2022-09-09T14:45:48;2.72;;;1.75;;
17214;SDS011;8723;51.502;6.918;2022-09-09T14:48:16;3.78;;;1.60;;
17214;SDS011;8723;51.502;6.918;2022-09-09T14:50:44;3.40;;;1.90;;
17214;SDS011;8723;51.502;6.918;2022-09-09T14:53:11;3.60;;;1.50;;
17214;SDS011;8723;51.502;6.918;2022-09-09T14:55:38;6.13;;;1.63;;
17214;SDS011;8723;51.502;6.918;2022-09-09T14:58:07;6.18;;;1.42;;
17214;SDS011;8723;51.502;6.918;2022-09-09T15:00:34;2.00;;;1.02;;
17214;SDS011;8723;51.502;6.918;2022-09-09T15:03:01;3.63;;;1.23;;
17214;SDS011;8723;51.502;6.918;2022-09-09T15:05:28;2.38;;;1.02;;
17214;SDS011;8723;51.502;6.918;2022-09-09T15:07:56;2.03;;;1.02;;
17214;SDS011;8723;51.502;6.918;2022-09-09T15:10:24;2.35;;;1.20;;
17214;SDS011;8723;51.502;6.918;2022-09-09T15:12:51;3.57;;;1.20;;
17214;SDS011;8723;51.502;6.918;2022-09-09T15:15:19;3.58;;;1.33;;
17214;SDS011;8723;51.502;6.918;2022-09-09T15:17:47;3.25;;;1.50;;
17214;SDS011;8723;51.502;6.918;2022-09-09T15:20:14;3.17;;;1.65;;